William & Lauren — WAN8365 — position and weather

sailwx.info

Track history (hours):
 
Tides and Currents Weather Stations Pressure Air Temp Water Temp Dewpoint Dewpoint Depression Visibility Wind Speed Wind Dir Waves Ship Positions

William & Lauren

Owner: F/V WILLIAM & LAUREN INC, BARNEGAT LIGHT, NJ. More information available from US FCC via Universal Licensing System and Coast Guard Vessel Documentation Center.

Last reported at 2017-Sep-19 03:00 UTC. Time now 2017-Sep-19 22:22 UTC.
Position N 39°45' W 074°07'.

Length 21 m.

Type: Fishing. MMSI: 367059740.

Date/timePositionNaut miles runAvg speedWind from/ knotsBaromVisibWave heightAir tempDewpointWater temp
2017-Sep-19 03:00N 39°45' W 074°07'0 0.0
2017-Sep-18 22:03N 39°45' W 074°07'0 0.0
2017-Sep-18 21:33N 39°45' W 074°07'0 0.0
2017-Sep-18 21:27N 39°45' W 074°07'0 0.0
2017-Sep-18 20:51N 39°45' W 074°07'0 0.0
2017-Sep-18 20:21N 39°45' W 074°07'0 0.0
2017-Sep-18 19:54N 39°45' W 074°07'0 0.0
2017-Sep-18 12:24N 39°45' W 074°07'1 2.0
2017-Sep-18 11:59N 39°46' W 074°06'3 6.8
2017-Sep-18 11:29N 39°44' W 074°03'49 1.0
2017-Sep-16 12:23N 39°05' W 073°23'14 2.0
2017-Sep-16 05:38N 38°54' W 073°33'0 0.7
2017-Sep-16 05:17N 38°54' W 073°32'55 4.8
2017-Sep-15 17:53N 39°44' W 074°01'5 2.2
2017-Sep-15 15:39N 39°45' W 074°07'0 0.0
2017-Sep-15 11:21N 39°45' W 074°07'0 0.0
2017-Sep-15 10:57N 39°45' W 074°07'0 0.0
2017-Sep-14 23:54N 39°45' W 074°07'0 0.0
2017-Sep-14 22:06N 39°45' W 074°07'0 0.1
2017-Sep-14 22:00N 39°45' W 074°07'0 0.0
2017-Sep-14 17:54N 39°45' W 074°07'0 0.0
2017-Sep-14 16:12N 39°45' W 074°07'0 0.0
2017-Sep-14 15:42N 39°45' W 074°07'0 0.0
2017-Sep-14 15:30N 39°45' W 074°07'0 0.0
2017-Sep-14 13:54N 39°45' W 074°07'0 0.0
2017-Sep-14 10:33N 39°45' W 074°07'0 0.0
2017-Sep-14 10:15N 39°45' W 074°07'0 0.0
2017-Sep-14 09:58N 39°45' W 074°07'0 0.0
2017-Sep-14 09:28N 39°45' W 074°07'0 0.0
2017-Sep-14 08:58N 39°45' W 074°07'0 0.0
2017-Sep-14 08:28N 39°45' W 074°07'0 0.0
2017-Sep-14 07:58N 39°45' W 074°07'0 0.0
2017-Sep-14 07:28N 39°45' W 074°07'0 0.0
2017-Sep-14 06:57N 39°45' W 074°07'0 0.0
2017-Sep-14 06:28N 39°45' W 074°07'0 0.0
2017-Sep-14 05:52N 39°45' W 074°07'0 0.0
2017-Sep-14 04:46N 39°45' W 074°07'0 0.0
2017-Sep-14 04:16N 39°45' W 074°07'0 0.0
2017-Sep-14 02:58N 39°45' W 074°07'0 0.0
2017-Sep-13 22:46N 39°45' W 074°07'0 0.0
2017-Sep-13 22:16N 39°45' W 074°07'0 0.0
2017-Sep-13 21:52N 39°45' W 074°07'0 0.0
2017-Sep-13 21:16N 39°45' W 074°07'0 0.0
2017-Sep-13 20:58N 39°45' W 074°07'0 0.0
2017-Sep-13 20:28N 39°45' W 074°07'0 0.0
2017-Sep-13 17:58N 39°45' W 074°07'0 0.0
2017-Sep-13 16:52N 39°45' W 074°07'0 0.0
2017-Sep-13 15:40N 39°45' W 074°07'0 0.0
2017-Sep-13 14:22N 39°45' W 074°07'0 0.0
2017-Sep-13 13:52N 39°45' W 074°07'0 0.0
2017-Sep-13 13:22N 39°45' W 074°07'0 0.0
2017-Sep-13 12:58N 39°45' W 074°07'0 0.0
2017-Sep-13 12:28N 39°45' W 074°07'0 0.0
2017-Sep-13 11:55N 39°45' W 074°07'0 0.0
2017-Sep-13 11:28N 39°45' W 074°07'0 0.0
2017-Sep-13 10:58N 39°45' W 074°07'0 0.0
2017-Sep-13 10:28N 39°45' W 074°07'0 0.0
2017-Sep-13 09:58N 39°45' W 074°07'0 0.0
2017-Sep-13 09:28N 39°45' W 074°07'0 0.0
2017-Sep-13 08:52N 39°45' W 074°07'0 0.0
2017-Sep-13 08:28N 39°45' W 074°07'0 0.0
2017-Sep-13 07:58N 39°45' W 074°07'0 0.0
2017-Sep-13 07:28N 39°45' W 074°07'0 0.0
2017-Sep-13 06:58N 39°45' W 074°07'0 0.0
2017-Sep-13 06:28N 39°45' W 074°07'0 0.0
2017-Sep-13 05:58N 39°45' W 074°07'0 0.0
2017-Sep-13 05:28N 39°45' W 074°07'0 0.0
2017-Sep-13 04:58N 39°45' W 074°07'0 0.0
2017-Sep-13 04:28N 39°45' W 074°07'0 0.0
2017-Sep-13 03:58N 39°45' W 074°07'0 0.0
2017-Sep-13 03:28N 39°45' W 074°07'0 0.0
2017-Sep-13 02:55N 39°45' W 074°07'0 0.0
2017-Sep-13 02:25N 39°45' W 074°07'0 0.0
2017-Sep-13 01:58N 39°45' W 074°07'0 0.0
2017-Sep-13 01:19N 39°45' W 074°07'0 0.0
2017-Sep-13 00:40N 39°45' W 074°07'0 0.0
2017-Sep-13 00:22N 39°45' W 074°07'0 0.0
2017-Sep-12 23:58N 39°45' W 074°07'0 0.0
2017-Sep-12 23:28N 39°45' W 074°07'0 0.0
2017-Sep-12 22:46N 39°45' W 074°07'0 0.0
2017-Sep-12 19:37N 39°45' W 074°07'0 0.0
2017-Sep-12 16:37N 39°45' W 074°07'0 0.0
2017-Sep-12 16:07N 39°45' W 074°07'0 0.0
2017-Sep-12 15:49N 39°45' W 074°07'0 0.0
2017-Sep-12 15:19N 39°45' W 074°07'0 0.0
2017-Sep-12 14:52N 39°45' W 074°07'0 0.0
2017-Sep-12 14:28N 39°45' W 074°07'0 0.0
2017-Sep-12 12:58N 39°45' W 074°07'0 0.0
2017-Sep-12 12:28N 39°45' W 074°07'0 0.0
2017-Sep-12 11:52N 39°45' W 074°07'0 0.0
2017-Sep-12 10:16N 39°45' W 074°07'0 0.0
2017-Sep-12 09:52N 39°45' W 074°07'0 0.0
2017-Sep-12 09:28N 39°45' W 074°07'0 0.0
2017-Sep-12 08:58N 39°45' W 074°07'0 0.0
2017-Sep-12 08:22N 39°45' W 074°07'0 0.0
2017-Sep-12 07:16N 39°45' W 074°07'0 0.0
2017-Sep-12 06:55N 39°45' W 074°07'0 0.0
2017-Sep-12 06:19N 39°45' W 074°07'0 0.0
2017-Sep-12 05:52N 39°45' W 074°07'0 0.0
2017-Sep-12 03:34N 39°45' W 074°07'0 0.0
2017-Sep-12 00:16N 39°45' W 074°07'0 0.0
2017-Sep-11 22:22N 39°45' W 074°07'0 0.0
2017-Sep-11 12:13N 39°45' W 074°07'0 0.0
2017-Sep-11 08:31N 39°45' W 074°07'0 0.0
2017-Sep-11 07:01N 39°45' W 074°07'0 0.0
2017-Sep-11 06:55N 39°45' W 074°07'0 0.0
2017-Sep-11 05:07N 39°45' W 074°07'0 0.0
2017-Sep-11 04:55N 39°45' W 074°07'0 0.0
2017-Sep-11 03:25N 39°45' W 074°07'0 0.0
2017-Sep-11 01:25N 39°45' W 074°07'0 0.0
2017-Sep-11 00:55N 39°45' W 074°07'0 0.0
2017-Sep-10 23:07N 39°45' W 074°07'0 0.0
2017-Sep-10 18:10N 39°45' W 074°07'0 0.0
2017-Sep-10 17:46N 39°45' W 074°07'0 0.0
2017-Sep-10 17:28N 39°45' W 074°07'0 0.0
2017-Sep-10 16:55N 39°45' W 074°07'0 0.0
2017-Sep-10 13:25N 39°45' W 074°07'0 0.0
2017-Sep-10 12:55N 39°45' W 074°07'0 0.0
2017-Sep-10 11:43N 39°45' W 074°07'0 0.0
2017-Sep-10 08:16N 39°45' W 074°07'0 0.0
2017-Sep-10 07:46N 39°45' W 074°07'0 0.0
2017-Sep-10 02:58N 39°45' W 074°07'0 0.0
2017-Sep-10 01:28N 39°45' W 074°07'0 0.0
2017-Sep-10 00:46N 39°45' W 074°07'0 0.0
2017-Sep-10 00:10N 39°45' W 074°07'0 0.0
2017-Sep-09 23:49N 39°45' W 074°07'0 0.0
2017-Sep-09 22:10N 39°45' W 074°07'0 0.0
2017-Sep-09 20:40N 39°45' W 074°07'0 0.0
2017-Sep-09 20:22N 39°45' W 074°07'0 0.0
2017-Sep-09 19:58N 39°45' W 074°07'0 0.0
2017-Sep-09 16:52N 39°45' W 074°07'0 0.0
2017-Sep-09 15:58N 39°45' W 074°07'0 0.0
2017-Sep-09 10:59N 39°45' W 074°07'0 0.0
2017-Sep-09 10:29N 39°45' W 074°07'0 0.0
2017-Sep-09 09:47N 39°45' W 074°07'0 0.0
2017-Sep-09 09:29N 39°45' W 074°07'0 0.0
2017-Sep-09 08:47N 39°45' W 074°07'0 0.0
2017-Sep-09 08:11N 39°45' W 074°07'0 0.0
2017-Sep-09 07:41N 39°45' W 074°07'0 0.0
2017-Sep-09 06:23N 39°45' W 074°07'0 0.0
2017-Sep-09 05:59N 39°45' W 074°07'  
Track history (hours):
 
Tides and Currents Weather Stations Pressure Air Temp Water Temp Dewpoint Dewpoint Depression Visibility Wind Speed Wind Dir Waves Ship Positions

William & Lauren

Owner: F/V WILLIAM & LAUREN INC, BARNEGAT LIGHT, NJ. More information available from US FCC via Universal Licensing System and Coast Guard Vessel Documentation Center.

Last reported at 2017-Sep-19 03:00 UTC. Time now 2017-Sep-19 22:22 UTC.
Position N 39°45' W 074°07'.

Length 21 m.

Type: Fishing. MMSI: 367059740.

Date/timePositionNaut miles runAvg speedWind from/ knotsBaromVisibWave heightAir tempDewpointWater temp
2017-Sep-19 03:00N 39°45' W 074°07'0 0.0
2017-Sep-18 22:03N 39°45' W 074°07'0 0.0
2017-Sep-18 21:33N 39°45' W 074°07'0 0.0
2017-Sep-18 21:27N 39°45' W 074°07'0 0.0
2017-Sep-18 20:51N 39°45' W 074°07'0 0.0
2017-Sep-18 20:21N 39°45' W 074°07'0 0.0
2017-Sep-18 19:54N 39°45' W 074°07'0 0.0
2017-Sep-18 12:24N 39°45' W 074°07'1 2.0
2017-Sep-18 11:59N 39°46' W 074°06'3 6.8
2017-Sep-18 11:29N 39°44' W 074°03'49 1.0
2017-Sep-16 12:23N 39°05' W 073°23'14 2.0
2017-Sep-16 05:38N 38°54' W 073°33'0 0.7
2017-Sep-16 05:17N 38°54' W 073°32'55 4.8
2017-Sep-15 17:53N 39°44' W 074°01'5 2.2
2017-Sep-15 15:39N 39°45' W 074°07'0 0.0
2017-Sep-15 11:21N 39°45' W 074°07'0 0.0
2017-Sep-15 10:57N 39°45' W 074°07'0 0.0
2017-Sep-14 23:54N 39°45' W 074°07'0 0.0
2017-Sep-14 22:06N 39°45' W 074°07'0 0.1
2017-Sep-14 22:00N 39°45' W 074°07'0 0.0
2017-Sep-14 17:54N 39°45' W 074°07'0 0.0
2017-Sep-14 16:12N 39°45' W 074°07'0 0.0
2017-Sep-14 15:42N 39°45' W 074°07'0 0.0
2017-Sep-14 15:30N 39°45' W 074°07'0 0.0
2017-Sep-14 13:54N 39°45' W 074°07'0 0.0
2017-Sep-14 10:33N 39°45' W 074°07'0 0.0
2017-Sep-14 10:15N 39°45' W 074°07'0 0.0
2017-Sep-14 09:58N 39°45' W 074°07'0 0.0
2017-Sep-14 09:28N 39°45' W 074°07'0 0.0
2017-Sep-14 08:58N 39°45' W 074°07'0 0.0
2017-Sep-14 08:28N 39°45' W 074°07'0 0.0
2017-Sep-14 07:58N 39°45' W 074°07'0 0.0
2017-Sep-14 07:28N 39°45' W 074°07'0 0.0
2017-Sep-14 06:57N 39°45' W 074°07'0 0.0
2017-Sep-14 06:28N 39°45' W 074°07'0 0.0
2017-Sep-14 05:52N 39°45' W 074°07'0 0.0
2017-Sep-14 04:46N 39°45' W 074°07'0 0.0
2017-Sep-14 04:16N 39°45' W 074°07'0 0.0
2017-Sep-14 02:58N 39°45' W 074°07'0 0.0
2017-Sep-13 22:46N 39°45' W 074°07'0 0.0
2017-Sep-13 22:16N 39°45' W 074°07'0 0.0
2017-Sep-13 21:52N 39°45' W 074°07'0 0.0
2017-Sep-13 21:16N 39°45' W 074°07'0 0.0
2017-Sep-13 20:58N 39°45' W 074°07'0 0.0
2017-Sep-13 20:28N 39°45' W 074°07'0 0.0
2017-Sep-13 17:58N 39°45' W 074°07'0 0.0
2017-Sep-13 16:52N 39°45' W 074°07'0 0.0
2017-Sep-13 15:40N 39°45' W 074°07'0 0.0
2017-Sep-13 14:22N 39°45' W 074°07'0 0.0
2017-Sep-13 13:52N 39°45' W 074°07'0 0.0
2017-Sep-13 13:22N 39°45' W 074°07'0 0.0
2017-Sep-13 12:58N 39°45' W 074°07'0 0.0
2017-Sep-13 12:28N 39°45' W 074°07'0 0.0
2017-Sep-13 11:55N 39°45' W 074°07'0 0.0
2017-Sep-13 11:28N 39°45' W 074°07'0 0.0
2017-Sep-13 10:58N 39°45' W 074°07'0 0.0
2017-Sep-13 10:28N 39°45' W 074°07'0 0.0
2017-Sep-13 09:58N 39°45' W 074°07'0 0.0
2017-Sep-13 09:28N 39°45' W 074°07'0 0.0
2017-Sep-13 08:52N 39°45' W 074°07'0 0.0
2017-Sep-13 08:28N 39°45' W 074°07'0 0.0
2017-Sep-13 07:58N 39°45' W 074°07'0 0.0
2017-Sep-13 07:28N 39°45' W 074°07'0 0.0
2017-Sep-13 06:58N 39°45' W 074°07'0 0.0
2017-Sep-13 06:28N 39°45' W 074°07'0 0.0
2017-Sep-13 05:58N 39°45' W 074°07'0 0.0
2017-Sep-13 05:28N 39°45' W 074°07'0 0.0
2017-Sep-13 04:58N 39°45' W 074°07'0 0.0
2017-Sep-13 04:28N 39°45' W 074°07'0 0.0
2017-Sep-13 03:58N 39°45' W 074°07'0 0.0
2017-Sep-13 03:28N 39°45' W 074°07'0 0.0
2017-Sep-13 02:55N 39°45' W 074°07'0 0.0
2017-Sep-13 02:25N 39°45' W 074°07'0 0.0
2017-Sep-13 01:58N 39°45' W 074°07'0 0.0
2017-Sep-13 01:19N 39°45' W 074°07'0 0.0
2017-Sep-13 00:40N 39°45' W 074°07'0 0.0
2017-Sep-13 00:22N 39°45' W 074°07'0 0.0
2017-Sep-12 23:58N 39°45' W 074°07'0 0.0
2017-Sep-12 23:28N 39°45' W 074°07'0 0.0
2017-Sep-12 22:46N 39°45' W 074°07'0 0.0
2017-Sep-12 19:37N 39°45' W 074°07'0 0.0
2017-Sep-12 16:37N 39°45' W 074°07'0 0.0
2017-Sep-12 16:07N 39°45' W 074°07'0 0.0
2017-Sep-12 15:49N 39°45' W 074°07'0 0.0
2017-Sep-12 15:19N 39°45' W 074°07'0 0.0
2017-Sep-12 14:52N 39°45' W 074°07'0 0.0
2017-Sep-12 14:28N 39°45' W 074°07'0 0.0
2017-Sep-12 12:58N 39°45' W 074°07'0 0.0
2017-Sep-12 12:28N 39°45' W 074°07'0 0.0
2017-Sep-12 11:52N 39°45' W 074°07'0 0.0
2017-Sep-12 10:16N 39°45' W 074°07'0 0.0
2017-Sep-12 09:52N 39°45' W 074°07'0 0.0
2017-Sep-12 09:28N 39°45' W 074°07'0 0.0
2017-Sep-12 08:58N 39°45' W 074°07'0 0.0
2017-Sep-12 08:22N 39°45' W 074°07'0 0.0
2017-Sep-12 07:16N 39°45' W 074°07'0 0.0
2017-Sep-12 06:55N 39°45' W 074°07'0 0.0
2017-Sep-12 06:19N 39°45' W 074°07'0 0.0
2017-Sep-12 05:52N 39°45' W 074°07'0 0.0
2017-Sep-12 03:34N 39°45' W 074°07'0 0.0
2017-Sep-12 00:16N 39°45' W 074°07'0 0.0
2017-Sep-11 22:22N 39°45' W 074°07'0 0.0
2017-Sep-11 12:13N 39°45' W 074°07'0 0.0
2017-Sep-11 08:31N 39°45' W 074°07'0 0.0
2017-Sep-11 07:01N 39°45' W 074°07'0 0.0
2017-Sep-11 06:55N 39°45' W 074°07'0 0.0
2017-Sep-11 05:07N 39°45' W 074°07'0 0.0
2017-Sep-11 04:55N 39°45' W 074°07'0 0.0
2017-Sep-11 03:25N 39°45' W 074°07'0 0.0
2017-Sep-11 01:25N 39°45' W 074°07'0 0.0
2017-Sep-11 00:55N 39°45' W 074°07'0 0.0
2017-Sep-10 23:07N 39°45' W 074°07'0 0.0
2017-Sep-10 18:10N 39°45' W 074°07'0 0.0
2017-Sep-10 17:46N 39°45' W 074°07'0 0.0
2017-Sep-10 17:28N 39°45' W 074°07'0 0.0
2017-Sep-10 16:55N 39°45' W 074°07'0 0.0
2017-Sep-10 13:25N 39°45' W 074°07'0 0.0
2017-Sep-10 12:55N 39°45' W 074°07'0 0.0
2017-Sep-10 11:43N 39°45' W 074°07'0 0.0
2017-Sep-10 08:16N 39°45' W 074°07'0 0.0
2017-Sep-10 07:46N 39°45' W 074°07'0 0.0
2017-Sep-10 02:58N 39°45' W 074°07'0 0.0
2017-Sep-10 01:28N 39°45' W 074°07'0 0.0
2017-Sep-10 00:46N 39°45' W 074°07'0 0.0
2017-Sep-10 00:10N 39°45' W 074°07'0 0.0
2017-Sep-09 23:49N 39°45' W 074°07'0 0.0
2017-Sep-09 22:10N 39°45' W 074°07'0 0.0
2017-Sep-09 20:40N 39°45' W 074°07'0 0.0
2017-Sep-09 20:22N 39°45' W 074°07'0 0.0
2017-Sep-09 19:58N 39°45' W 074°07'0 0.0
2017-Sep-09 16:52N 39°45' W 074°07'0 0.0
2017-Sep-09 15:58N 39°45' W 074°07'0 0.0
2017-Sep-09 10:59N 39°45' W 074°07'0 0.0
2017-Sep-09 10:29N 39°45' W 074°07'0 0.0
2017-Sep-09 09:47N 39°45' W 074°07'0 0.0
2017-Sep-09 09:29N 39°45' W 074°07'0 0.0
2017-Sep-09 08:47N 39°45' W 074°07'0 0.0
2017-Sep-09 08:11N 39°45' W 074°07'0 0.0
2017-Sep-09 07:41N 39°45' W 074°07'0 0.0
2017-Sep-09 06:23N 39°45' W 074°07'0 0.0
2017-Sep-09 05:59N 39°45' W 074°07'  

Dump ship's entire track history